Time,TemperatureF,DewpointF,PressureIn,WindDirection,WindDirectionDegrees,WindSpeedMPH,WindSpeedGustMPH,Humidity,HourlyPrecipIn,Conditions,Clouds,dailyrainin,SoftwareType,DateUTC
2013-04-17 01:17:00,59.0,57.6,29.47,SSE,157,0.0,0.0,95,0.00,CLR,OVC,0.00,WeatherDisplay:10.37,2013-04-17 05:17:00,
2013-04-17 01:22:00,59.0,57.3,29.47,SSE,157,0.0,0.0,94,0.00,CLR,OVC,0.00,WeatherDisplay:10.37,2013-04-17 05:22:00,
2013-04-17 01:27:00,59.0,57.6,29.47,SSE,157,0.0,0.0,95,0.00,CLR,OVC,0.00,WeatherDisplay:10.37,2013-04-17 05:27:00,
2013-04-17 01:32:00,59.0,57.3,29.47,SSW,202,0.0,0.0,94,0.00,CLR,OVC,0.00,WeatherDisplay:10.37,2013-04-17 05:32:00,
2013-04-17 01:37:00,59.0,57.0,29.47,SSE,157,0.0,0.0,93,0.00,CLR,OVC,0.00,WeatherDisplay:10.37,2013-04-17 05:37:00,
2013-04-17 01:42:00,59.0,56.7,29.47,SW,225,0.0,0.0,92,0.00,CLR,OVC,0.00,WeatherDisplay:10.37,2013-04-17 05:42:00,
2013-04-17 01:47:00,59.0,57.3,29.47,SSW,202,0.0,0.0,94,0.00,CLR,OVC,0.00,WeatherDisplay:10.37,2013-04-17 05:47:00,
2013-04-17 01:52:00,59.0,56.7,29.47,SW,225,0.0,0.0,92,0.00,CLR,OVC,0.00,WeatherDisplay:10.37,2013-04-17 05:52:00,
2013-04-17 01:57:00,59.0,56.7,29.47,SSW,202,0.0,0.0,92,0.00,CLR,OVC,0.00,WeatherDisplay:10.37,2013-04-17 05:57:00,
2013-04-17 02:02:00,59.0,56.7,29.47,SSW,202,0.0,0.0,92,0.00,CLR,OVC,0.00,WeatherDisplay:10.37,2013-04-17 06:02:00,
2013-04-17 02:07:00,59.0,57.3,29.47,SSW,202,0.0,0.0,94,0.00,CLR,OVC,0.00,WeatherDisplay:10.37,2013-04-17 06:07:00,
2013-04-17 02:12:00,59.0,56.4,29.47,SSW,202,0.0,0.0,91,0.00,CLR,OVC,0.00,WeatherDisplay:10.37,2013-04-17 06:12:00,
2013-04-17 02:17:00,59.0,56.7,29.46,SSW,202,0.0,0.0,92,0.00,CLR,OVC,0.00,WeatherDisplay:10.37,2013-04-17 06:17:00,
2013-04-17 02:22:00,58.0,53.8,29.46,SSW,202,0.0,0.0,86,0.00,CLR,OVC,0.00,WeatherDisplay:10.37,2013-04-17 06:22:00,
2013-04-17 02:27:00,58.0,54.5,29.45,SE,135,1.2,0.0,88,0.00,CLR,OVC,0.00,WeatherDisplay:10.37,2013-04-17 06:27:00,
2013-04-17 02:32:00,58.0,53.2,29.45,South,180,1.2,0.0,84,0.00,CLR,OVC,0.00,WeatherDisplay:10.37,2013-04-17 06:32:00,
2013-04-17 02:37:00,58.0,53.8,29.46,South,180,0.0,0.0,86,0.00,CLR,OVC,0.00,WeatherDisplay:10.37,2013-04-17 06:37:00,
2013-04-17 02:42:00,58.0,53.8,29.46,South,180,0.0,0.0,86,0.00,CLR,OVC,0.00,WeatherDisplay:10.37,2013-04-17 06:42:00,
2013-04-17 02:47:00,58.0,53.8,29.46,South,180,0.0,0.0,86,0.00,CLR,OVC,0.00,WeatherDisplay:10.37,2013-04-17 06:47:00,
2013-04-17 02:52:00,58.0,52.2,29.46,South,180,0.0,0.0,81,0.00,CLR,OVC,0.00,WeatherDisplay:10.37,2013-04-17 06:52:00,
2013-04-17 02:57:00,58.0,53.2,29.45,South,180,0.0,0.0,84,0.00,CLR,OVC,0.00,WeatherDisplay:10.37,2013-04-17 06:57:00,
2013-04-17 03:02:00,58.0,52.2,29.45,South,180,0.0,0.0,81,0.00,CLR,OVC,0.00,WeatherDisplay:10.37,2013-04-17 07:02:00,
2013-04-17 03:07:00,58.0,52.9,29.45,South,180,0.0,0.0,83,0.00,CLR,OVC,0.00,WeatherDisplay:10.37,2013-04-17 07:07:00,
2013-04-17 03:12:00,58.0,51.5,29.45,South,180,0.0,0.0,79,0.00,CLR,OVC,0.00,WeatherDisplay:10.37,2013-04-17 07:12:00,
2013-04-17 03:17:00,58.0,52.5,29.45,SE,135,0.0,0.0,82,0.00,CLR,OVC,0.00,WeatherDisplay:10.37,2013-04-17 07:17:00,
2013-04-17 03:22:00,58.0,51.5,29.45,SE,135,0.0,0.0,79,0.00,CLR,OVC,0.00,WeatherDisplay:10.37,2013-04-17 07:22:00,
2013-04-17 03:27:00,58.0,52.9,29.45,SE,135,0.0,0.0,83,0.00,CLR,OVC,0.00,WeatherDisplay:10.37,2013-04-17 07:27:00,
2013-04-17 03:32:00,58.0,51.9,29.45,SE,135,0.0,0.0,80,0.00,CLR,OVC,0.00,WeatherDisplay:10.37,2013-04-17 07:32:00,
2013-04-17 03:37:00,58.0,52.5,29.45,SE,135,0.0,0.0,82,0.00,CLR,OVC,0.00,WeatherDisplay:10.37,2013-04-17 07:37:00,
2013-04-17 03:42:00,58.0,51.5,29.45,SE,135,0.0,0.0,79,0.00,CLR,OVC,0.00,WeatherDisplay:10.37,2013-04-17 07:42:00,
2013-04-17 03:47:00,58.0,51.9,29.45,SE,135,0.0,0.0,80,0.00,CLR,OVC,0.00,WeatherDisplay:10.37,2013-04-17 07:47:00,
2013-04-17 03:52:00,58.0,49.4,29.45,SE,135,0.0,0.0,73,0.00,CLR,OVC,0.00,WeatherDisplay:10.37,2013-04-17 07:52:00,
2013-04-17 03:58:00,58.0,50.8,29.45,SE,135,0.0,0.0,77,0.00,CLR,OVC,0.00,WeatherDisplay:10.37,2013-04-17 07:58:00,
2013-04-17 04:03:00,58.0,50.5,29.45,SE,135,0.0,0.0,76,0.00,CLR,OVC,0.00,WeatherDisplay:10.37,2013-04-17 08:03:00,
2013-04-17 04:08:00,57.0,49.5,29.44,SE,135,0.0,0.0,76,0.00,CLR,OVC,0.00,WeatherDisplay:10.37,2013-04-17 08:08:00,
2013-04-17 04:13:00,57.0,48.8,29.44,SE,135,0.0,0.0,74,0.00,CLR,OVC,0.00,WeatherDisplay:10.37,2013-04-17 08:13:00,
2013-04-17 04:18:00,57.0,48.4,29.45,SE,135,0.0,0.0,73,0.00,CLR,OVC,0.00,WeatherDisplay:10.37,2013-04-17 08:18:00,
2013-04-17 04:23:00,57.0,48.8,29.45,SE,135,0.0,0.0,74,0.00,CLR,OVC,0.00,WeatherDisplay:10.37,2013-04-17 08:23:00,
2013-04-17 04:28:00,57.0,49.2,29.45,SE,135,0.0,0.0,75,0.00,CLR,OVC,0.00,WeatherDisplay:10.37,2013-04-17 08:28:00,
2013-04-17 04:33:00,57.0,49.2,29.45,SE,135,0.0,0.0,75,0.00,CLR,OVC,0.00,WeatherDisplay:10.37,2013-04-17 08:33:00,
2013-04-17 04:38:00,57.0,49.5,29.45,SE,135,0.0,0.0,76,0.00,CLR,OVC,0.00,WeatherDisplay:10.37,2013-04-17 08:38:00,
2013-04-17 04:43:00,57.0,48.8,29.45,SE,135,0.0,0.0,74,0.00,CLR,OVC,0.00,WeatherDisplay:10.37,2013-04-17 08:43:00,
2013-04-17 04:48:00,57.0,48.4,29.45,SE,135,0.0,0.0,73,0.00,CLR,OVC,0.00,WeatherDisplay:10.37,2013-04-17 08:48:00,
2013-04-17 04:53:00,57.0,48.1,29.45,SE,135,0.0,0.0,72,0.00,CLR,OVC,0.00,WeatherDisplay:10.37,2013-04-17 08:53:00,
2013-04-17 04:58:00,57.0,48.1,29.45,SE,135,0.0,0.0,72,0.00,CLR,OVC,0.00,WeatherDisplay:10.37,2013-04-17 08:58:00,
2013-04-17 05:03:00,57.0,48.4,29.45,SE,135,0.0,0.0,73,0.00,CLR,OVC,0.00,WeatherDisplay:10.37,2013-04-17 09:03:00,
2013-04-17 05:08:00,57.0,47.7,29.44,SE,135,0.0,0.0,71,0.00,CLR,OVC,0.00,WeatherDisplay:10.37,2013-04-17 09:08:00,
2013-04-17 05:13:00,57.0,47.7,29.44,SE,135,0.0,0.0,71,0.00,CLR,OVC,0.00,WeatherDisplay:10.37,2013-04-17 09:13:00,
2013-04-17 05:18:00,57.0,47.7,29.44,SE,135,0.0,0.0,71,0.00,CLR,OVC,0.00,WeatherDisplay:10.37,2013-04-17 09:18:00,
2013-04-17 05:23:00,57.0,47.7,29.44,SE,135,0.0,0.0,71,0.00,CLR,OVC,0.00,WeatherDisplay:10.37,2013-04-17 09:23:00,
2013-04-17 05:28:00,57.0,46.9,29.43,SE,135,0.0,0.0,69,0.00,CLR,OVC,0.00,WeatherDisplay:10.37,2013-04-17 09:28:00,
2013-04-17 13:38:00,79.0,62.5,29.40,WSW,247,0.0,0.0,57,0.00,CLR,OVC,0.00,WeatherDisplay:10.37,2013-04-17 17:38:00,
2013-04-17 13:43:00,79.0,62.0,29.40,NW,315,0.0,0.0,56,0.00,CLR,OVC,0.00,WeatherDisplay:10.37,2013-04-17 17:43:00,
2013-04-17 13:48:00,77.0,62.5,29.40,NW,315,3.5,3.5,61,0.00,CLR,OVC,0.00,WeatherDisplay:10.37,2013-04-17 17:48:00,
2013-04-17 13:53:00,77.0,63.4,29.40,WSW,247,5.0,5.0,63,0.00,CLR,OVC,0.00,WeatherDisplay:10.37,2013-04-17 17:53:00,
2013-04-17 13:58:00,77.0,63.4,29.40,WNW,292,0.0,0.0,63,0.00,CLR,OVC,0.00,WeatherDisplay:10.37,2013-04-17 17:58:00,
2013-04-17 14:03:00,77.0,63.4,29.40,NW,315,0.0,0.0,63,0.00,CLR,OVC,0.00,WeatherDisplay:10.37,2013-04-17 18:03:00,
2013-04-17 14:08:00,77.0,63.0,29.40,NNW,337,0.0,0.0,62,0.00,CLR,OVC,0.00,WeatherDisplay:10.37,2013-04-17 18:08:00,
2013-04-17 14:13:00,78.0,63.5,29.40,West,270,0.0,0.0,61,0.00,CLR,OVC,0.00,WeatherDisplay:10.37,2013-04-17 18:13:00,
2013-04-17 14:18:00,78.0,63.9,29.39,WNW,292,0.0,0.0,62,0.00,CLR,OVC,0.00,WeatherDisplay:10.37,2013-04-17 18:18:00,
2013-04-17 14:23:00,79.0,63.0,29.39,South,180,0.0,0.0,58,0.00,CLR,OVC,0.00,WeatherDisplay:10.37,2013-04-17 18:23:00,
2013-04-17 14:28:00,80.0,63.9,29.39,NW,315,0.0,0.0,58,0.00,CLR,OVC,0.00,WeatherDisplay:10.37,2013-04-17 18:28:00,
2013-04-17 14:33:00,79.0,63.0,29.39,West,270,0.0,0.0,58,0.00,CLR,OVC,0.00,WeatherDisplay:10.37,2013-04-17 18:33:00,
2013-04-17 14:38:00,78.0,62.5,29.39,West,270,0.0,0.0,59,0.00,CLR,OVC,0.00,WeatherDisplay:10.37,2013-04-17 18:38:00,
2013-04-17 14:43:00,77.0,63.0,29.39,WNW,292,0.0,0.0,62,0.00,CLR,OVC,0.00,WeatherDisplay:10.37,2013-04-17 18:43:00,
2013-04-17 14:48:00,77.0,63.9,29.40,WNW,292,0.0,0.0,64,0.00,CLR,OVC,0.00,WeatherDisplay:10.37,2013-04-17 18:48:00,
2013-04-17 14:53:00,76.0,62.5,29.40,NW,315,4.6,4.6,63,0.00,CLR,OVC,0.00,WeatherDisplay:10.37,2013-04-17 18:53:00,
2013-04-17 14:58:00,76.0,62.9,29.40,West,270,2.3,0.0,64,0.00,CLR,OVC,0.00,WeatherDisplay:10.37,2013-04-17 18:58:00,
2013-04-17 15:03:00,77.0,63.0,29.40,WSW,247,3.5,3.5,62,0.00,CLR,OVC,0.00,WeatherDisplay:10.37,2013-04-17 19:03:00,
2013-04-17 15:08:00,77.0,63.0,29.39,SW,225,3.5,3.5,62,0.00,CLR,OVC,0.00,WeatherDisplay:10.37,2013-04-17 19:08:00,
2013-04-17 15:13:00,78.0,63.5,29.39,SW,225,0.0,0.0,61,0.00,CLR,OVC,0.00,WeatherDisplay:10.37,2013-04-17 19:13:00,
2013-04-17 15:18:00,79.0,63.9,29.38,WSW,247,0.0,0.0,60,0.00,CLR,OVC,0.00,WeatherDisplay:10.37,2013-04-17 19:18:00,
2013-04-17 15:23:00,79.0,63.4,29.38,West,270,0.0,0.0,59,0.00,CLR,OVC,0.00,WeatherDisplay:10.37,2013-04-17 19:23:00,
2013-04-17 15:29:00,78.0,62.5,29.38,SW,225,0.0,0.0,59,0.00,CLR,OVC,0.00,WeatherDisplay:10.37,2013-04-17 19:29:00,
2013-04-17 15:33:00,79.0,63.4,29.38,SW,225,0.0,0.0,59,0.00,CLR,OVC,0.00,WeatherDisplay:10.37,2013-04-17 19:33:00,
2013-04-17 15:39:00,78.0,62.0,29.37,WNW,292,3.5,0.0,58,0.00,CLR,OVC,0.00,WeatherDisplay:10.37,2013-04-17 19:39:00,
2013-04-17 15:44:00,78.0,63.5,29.37,WNW,292,0.0,0.0,61,0.00,CLR,OVC,0.00,WeatherDisplay:10.37,2013-04-17 19:44:00,
2013-04-17 15:49:00,77.0,63.0,29.37,WSW,247,1.0,1.0,62,0.00,CLR,OVC,0.00,WeatherDisplay:10.37,2013-04-17 19:49:00,
2013-04-17 15:54:00,77.0,63.0,29.37,West,270,0.0,0.0,62,0.00,CLR,OVC,0.00,WeatherDisplay:10.37,2013-04-17 19:54:00,
2013-04-17 15:59:00,76.0,62.5,29.37,West,270,2.3,2.3,63,0.00,CLR,OVC,0.00,WeatherDisplay:10.37,2013-04-17 19:59:00,
2013-04-17 16:04:00,76.0,62.9,29.37,West,270,1.2,0.0,64,0.00,CLR,OVC,0.00,WeatherDisplay:10.37,2013-04-17 20:04:00,
2013-04-17 16:09:00,76.0,63.4,29.37,WSW,247,2.3,2.3,65,0.00,CLR,OVC,0.00,WeatherDisplay:10.37,2013-04-17 20:09:00,
2013-04-17 16:14:00,75.0,62.4,29.37,WSW,247,2.3,2.3,65,0.00,CLR,OVC,0.00,WeatherDisplay:10.37,2013-04-17 20:14:00,
2013-04-17 16:19:00,75.0,62.4,29.37,West,270,0.0,0.0,65,0.00,CLR,OVC,0.00,WeatherDisplay:10.37,2013-04-17 20:19:00,
2013-04-17 16:24:00,75.0,62.4,29.37,West,270,3.5,3.5,65,0.00,CLR,OVC,0.00,WeatherDisplay:10.37,2013-04-17 20:24:00,
2013-04-17 16:29:00,75.0,62.9,29.37,WSW,247,3.5,3.5,66,0.00,CLR,OVC,0.00,WeatherDisplay:10.37,2013-04-17 20:29:00,
2013-04-17 16:34:00,75.0,62.4,29.37,West,270,3.5,3.5,65,0.00,CLR,OVC,0.00,WeatherDisplay:10.37,2013-04-17 20:34:00,
2013-04-17 16:39:00,76.0,63.8,29.36,WNW,292,1.2,1.2,66,0.00,CLR,OVC,0.00,WeatherDisplay:10.37,2013-04-17 20:39:00,
2013-04-17 16:44:00,76.0,63.8,29.36,West,270,0.0,0.0,66,0.00,CLR,OVC,0.00,WeatherDisplay:10.37,2013-04-17 20:44:00,
2013-04-17 16:49:00,77.0,64.3,29.35,SW,225,0.0,0.0,65,0.00,CLR,OVC,0.00,WeatherDisplay:10.37,2013-04-17 20:49:00,
2013-04-17 16:54:00,78.0,64.4,29.35,SW,225,0.0,0.0,63,0.00,CLR,OVC,0.00,WeatherDisplay:10.37,2013-04-17 20:54:00,
2013-04-17 16:59:00,78.0,63.9,29.35,NW,315,0.0,0.0,62,0.00,CLR,OVC,0.00,WeatherDisplay:10.37,2013-04-17 20:59:00,
2013-04-17 17:04:00,78.0,63.5,29.35,SSE,157,0.0,0.0,61,0.00,CLR,OVC,0.00,WeatherDisplay:10.37,2013-04-17 21:04:00,
2013-04-17 17:09:00,78.0,63.5,29.35,West,270,0.0,0.0,61,0.00,CLR,OVC,0.00,WeatherDisplay:10.37,2013-04-17 21:09:00,
2013-04-17 17:14:00,78.0,63.9,29.35,West,270,0.0,0.0,62,0.00,CLR,OVC,0.00,WeatherDisplay:10.37,2013-04-17 21:14:00,
2013-04-17 17:19:00,77.0,63.0,29.35,West,270,0.0,0.0,62,0.00,CLR,OVC,0.00,WeatherDisplay:10.37,2013-04-17 21:19:00,
2013-04-17 17:24:00,77.0,63.0,29.35,East,90,0.0,0.0,62,0.00,CLR,OVC,0.00,WeatherDisplay:10.37,2013-04-17 21:24:00,
2013-04-17 17:29:00,77.0,63.0,29.35,SE,135,0.0,0.0,62,0.00,CLR,OVC,0.00,WeatherDisplay:10.37,2013-04-17 21:29:00,
2013-04-17 17:34:00,77.0,63.0,29.35,SE,135,0.0,0.0,62,0.00,CLR,OVC,0.00,WeatherDisplay:10.37,2013-04-17 21:34:00,
2013-04-17 17:39:00,77.0,63.0,29.35,SE,135,0.0,0.0,62,0.00,CLR,OVC,0.00,WeatherDisplay:10.37,2013-04-17 21:39:00,
2013-04-17 17:44:00,77.0,63.4,29.35,SE,135,0.0,0.0,63,0.00,CLR,OVC,0.00,WeatherDisplay:10.37,2013-04-17 21:44:00,
2013-04-17 17:49:00,78.0,64.4,29.35,SE,135,0.0,0.0,63,0.00,CLR,OVC,0.00,WeatherDisplay:10.37,2013-04-17 21:49:00,
2013-04-17 17:54:00,78.0,64.4,29.35,NW,315,0.0,0.0,63,0.00,CLR,OVC,0.00,WeatherDisplay:10.37,2013-04-17 21:54:00,
2013-04-17 17:59:00,77.0,63.4,29.35,NW,315,2.0,2.0,63,0.00,CLR,OVC,0.00,WeatherDisplay:10.37,2013-04-17 21:59:00,
2013-04-17 18:04:00,77.0,64.3,29.35,NW,315,1.2,0.0,65,0.00,CLR,OVC,0.00,WeatherDisplay:10.37,2013-04-17 22:04:00,
2013-04-17 18:09:00,77.0,64.8,29.35,NW,315,0.0,0.0,66,0.00,CLR,OVC,0.00,WeatherDisplay:10.37,2013-04-17 22:09:00,
2013-04-17 18:14:00,77.0,64.8,29.35,West,270,0.0,0.0,66,0.00,CLR,OVC,0.00,WeatherDisplay:10.37,2013-04-17 22:14:00,
2013-04-17 18:19:00,77.0,64.8,29.35,NW,315,2.3,2.3,66,0.00,CLR,OVC,0.00,WeatherDisplay:10.37,2013-04-17 22:19:00,
2013-04-17 18:24:00,76.0,64.2,29.35,NW,315,0.0,0.0,67,0.00,CLR,OVC,0.00,WeatherDisplay:10.37,2013-04-17 22:24:00,
2013-04-17 18:29:00,76.0,65.1,29.36,NW,315,0.0,0.0,69,0.00,CLR,OVC,0.00,WeatherDisplay:10.37,2013-04-17 22:29:00,
2013-04-17 18:34:00,75.0,64.1,29.36,NW,315,0.0,0.0,69,0.00,CLR,OVC,0.00,WeatherDisplay:10.37,2013-04-17 22:34:00,
2013-04-17 18:39:00,75.0,64.5,29.36,NW,315,0.0,0.0,70,0.00,CLR,OVC,0.00,WeatherDisplay:10.37,2013-04-17 22:39:00,
2013-04-17 18:44:00,75.0,65.0,29.36,NW,315,0.0,0.0,71,0.00,CLR,OVC,0.00,WeatherDisplay:10.37,2013-04-17 22:44:00,
2013-04-17 18:49:00,74.0,64.4,29.35,NW,315,0.0,0.0,72,0.00,CLR,OVC,0.00,WeatherDisplay:10.37,2013-04-17 22:49:00,
2013-04-17 18:54:00,74.0,64.8,29.35,NW,315,0.0,0.0,73,0.00,CLR,OVC,0.00,WeatherDisplay:10.37,2013-04-17 22:54:00,
2013-04-17 18:59:00,74.0,65.6,29.35,NW,315,0.0,0.0,75,0.00,CLR,OVC,0.00,WeatherDisplay:10.37,2013-04-17 22:59:00,
2013-04-17 19:04:00,73.0,64.6,29.35,NW,315,0.0,0.0,75,0.00,CLR,OVC,0.00,WeatherDisplay:10.37,2013-04-17 23:04:00,
2013-04-17 19:09:00,73.0,64.6,29.35,NW,315,0.0,0.0,75,0.00,CLR,OVC,0.00,WeatherDisplay:10.37,2013-04-17 23:09:00,
2013-04-17 19:14:00,73.0,64.6,29.35,NW,315,0.0,0.0,75,0.00,CLR,OVC,0.00,WeatherDisplay:10.37,2013-04-17 23:14:00,
2013-04-17 19:19:00,73.0,64.6,29.36,NW,315,0.0,0.0,75,0.00,CLR,OVC,0.00,WeatherDisplay:10.37,2013-04-17 23:19:00,
2013-04-17 19:24:00,73.0,65.0,29.36,NW,315,0.0,0.0,76,0.00,CLR,OVC,0.00,WeatherDisplay:10.37,2013-04-17 23:24:00,
2013-04-17 19:29:00,72.0,65.1,29.35,NW,315,0.0,0.0,79,0.00,CLR,OVC,0.00,WeatherDisplay:10.37,2013-04-17 23:29:00,
2013-04-17 19:34:00,72.0,65.8,29.35,NW,315,0.0,0.0,81,0.00,CLR,OVC,0.00,WeatherDisplay:10.37,2013-04-17 23:34:00,
2013-04-17 19:39:00,71.0,64.9,29.36,NW,315,0.0,0.0,81,0.00,CLR,OVC,0.00,WeatherDisplay:10.37,2013-04-17 23:39:00,
2013-04-17 19:44:00,71.0,65.2,29.36,NW,315,0.0,0.0,82,0.00,CLR,OVC,0.00,WeatherDisplay:10.37,2013-04-17 23:44:00,
2013-04-17 19:49:00,70.0,64.9,29.36,NW,315,0.0,0.0,84,0.00,CLR,OVC,0.00,WeatherDisplay:10.37,2013-04-17 23:49:00,
2013-04-17 19:54:00,70.0,64.9,29.36,NW,315,0.0,0.0,84,0.00,CLR,OVC,0.00,WeatherDisplay:10.37,2013-04-17 23:54:00,
2013-04-17 19:59:00,69.0,64.0,29.36,NW,315,0.0,0.0,84,0.00,CLR,OVC,0.00,WeatherDisplay:10.37,2013-04-17 23:59:00,
2013-04-17 20:04:00,69.0,64.3,29.36,NW,315,0.0,0.0,85,0.00,CLR,OVC,0.00,WeatherDisplay:10.37,2013-04-18 00:04:00,
2013-04-17 20:09:00,69.0,64.3,29.36,NW,315,0.0,0.0,85,0.00,CLR,OVC,0.00,WeatherDisplay:10.37,2013-04-18 00:09:00,
2013-04-17 20:14:00,68.0,63.3,29.36,NW,315,0.0,0.0,85,0.00,CLR,OVC,0.00,WeatherDisplay:10.37,2013-04-18 00:14:00,
2013-04-17 20:19:00,68.0,63.7,29.36,NW,315,0.0,0.0,86,0.00,CLR,OVC,0.00,WeatherDisplay:10.37,2013-04-18 00:19:00,
2013-04-17 20:24:00,68.0,63.3,29.36,NW,315,0.0,0.0,85,0.00,CLR,OVC,0.00,WeatherDisplay:10.37,2013-04-18 00:24:00,
2013-04-17 20:29:00,68.0,63.3,29.38,NW,315,0.0,0.0,85,0.00,CLR,OVC,0.00,WeatherDisplay:10.37,2013-04-18 00:29:00,
2013-04-17 20:34:00,68.0,63.3,29.38,NW,315,0.0,0.0,85,0.00,CLR,OVC,0.00,WeatherDisplay:10.37,2013-04-18 00:34:00,
2013-04-17 20:39:00,68.0,63.3,29.38,NW,315,0.0,0.0,85,0.00,CLR,OVC,0.00,WeatherDisplay:10.37,2013-04-18 00:39:00,
2013-04-17 20:44:00,68.0,63.3,29.38,NW,315,0.0,0.0,85,0.00,CLR,OVC,0.00,WeatherDisplay:10.37,2013-04-18 00:44:00,
2013-04-17 20:49:00,68.0,63.3,29.38,NW,315,0.0,0.0,85,0.00,CLR,OVC,0.00,WeatherDisplay:10.37,2013-04-18 00:49:00,
2013-04-17 20:54:00,68.0,63.7,29.38,NW,315,0.0,0.0,86,0.00,CLR,OVC,0.00,WeatherDisplay:10.37,2013-04-18 00:54:00,
2013-04-17 20:59:00,68.0,63.7,29.39,NW,315,0.0,0.0,86,0.00,CLR,OVC,0.00,WeatherDisplay:10.37,2013-04-18 00:59:00,
2013-04-17 21:04:00,68.0,63.7,29.39,NW,315,0.0,0.0,86,0.00,CLR,OVC,0.00,WeatherDisplay:10.37,2013-04-18 01:04:00,
2013-04-17 21:09:00,68.0,63.7,29.39,NW,315,0.0,0.0,86,0.00,CLR,OVC,0.00,WeatherDisplay:10.37,2013-04-18 01:09:00,
2013-04-17 21:15:00,68.0,63.7,29.39,NW,315,0.0,0.0,86,0.00,CLR,OVC,0.00,WeatherDisplay:10.37,2013-04-18 01:15:00,
2013-04-17 21:20:00,68.0,63.7,29.39,NW,315,0.0,0.0,86,0.00,CLR,OVC,0.00,WeatherDisplay:10.37,2013-04-18 01:20:00,
2013-04-17 21:25:00,68.0,64.0,29.39,NW,315,0.0,0.0,87,0.00,CLR,OVC,0.00,WeatherDisplay:10.37,2013-04-18 01:25:00,
2013-04-17 21:30:00,68.0,64.3,29.39,NW,315,0.0,0.0,88,0.00,CLR,OVC,0.00,WeatherDisplay:10.37,2013-04-18 01:30:00,
2013-04-17 21:35:00,68.0,64.3,29.39,NW,315,0.0,0.0,88,0.00,CLR,OVC,0.00,WeatherDisplay:10.37,2013-04-18 01:35:00,
2013-04-17 21:40:00,68.0,64.3,29.39,NW,315,0.0,0.0,88,0.00,CLR,OVC,0.00,WeatherDisplay:10.37,2013-04-18 01:40:00,
2013-04-17 21:45:00,67.0,63.3,29.39,NW,315,0.0,0.0,88,0.00,CLR,OVC,0.00,WeatherDisplay:10.37,2013-04-18 01:45:00,
2013-04-17 21:50:00,67.0,63.6,29.39,NW,315,0.0,0.0,89,0.00,CLR,OVC,0.00,WeatherDisplay:10.37,2013-04-18 01:50:00,
2013-04-17 21:55:00,67.0,64.3,29.39,NW,315,0.0,0.0,91,0.00,CLR,OVC,0.00,WeatherDisplay:10.37,2013-04-18 01:55:00,
2013-04-17 22:00:00,66.0,63.9,29.39,NW,315,0.0,0.0,93,0.00,CLR,OVC,0.00,WeatherDisplay:10.37,2013-04-18 02:00:00,
2013-04-17 22:05:00,66.0,63.6,29.39,NW,315,0.0,0.0,92,0.00,CLR,OVC,0.00,WeatherDisplay:10.37,2013-04-18 02:05:00,
2013-04-17 22:10:00,66.0,63.9,29.39,NW,315,0.0,0.0,93,0.00,CLR,OVC,0.00,WeatherDisplay:10.37,2013-04-18 02:10:00,
2013-04-17 22:15:00,66.0,64.5,29.39,NW,315,0.0,0.0,95,0.00,CLR,OVC,0.00,WeatherDisplay:10.37,2013-04-18 02:15:00,
2013-04-17 22:20:00,65.0,63.5,29.40,NW,315,0.0,0.0,95,0.00,CLR,OVC,0.00,WeatherDisplay:10.37,2013-04-18 02:20:00,
2013-04-17 22:25:00,65.0,63.8,29.40,NW,315,0.0,0.0,96,0.00,CLR,OVC,0.00,WeatherDisplay:10.37,2013-04-18 02:25:00,
2013-04-17 22:30:00,65.0,63.5,29.40,NW,315,0.0,0.0,95,0.00,CLR,OVC,0.00,WeatherDisplay:10.37,2013-04-18 02:30:00,
2013-04-17 22:35:00,65.0,63.8,29.40,NW,315,0.0,0.0,96,0.00,CLR,OVC,0.00,WeatherDisplay:10.37,2013-04-18 02:35:00,
2013-04-17 22:40:00,65.0,63.8,29.40,NW,315,0.0,0.0,96,0.00,CLR,OVC,0.00,WeatherDisplay:10.37,2013-04-18 02:40:00,
2013-04-17 22:45:00,65.0,63.8,29.40,NW,315,0.0,0.0,96,0.00,CLR,OVC,0.00,WeatherDisplay:10.37,2013-04-18 02:45:00,
2013-04-17 22:50:00,65.0,63.8,29.40,NW,315,0.0,0.0,96,0.00,CLR,OVC,0.00,WeatherDisplay:10.37,2013-04-18 02:50:00,
2013-04-17 22:55:00,65.0,63.8,29.40,NW,315,0.0,0.0,96,0.00,CLR,OVC,0.00,WeatherDisplay:10.37,2013-04-18 02:55:00,
2013-04-17 23:00:00,65.0,63.8,29.40,NW,315,0.0,0.0,96,0.00,CLR,OVC,0.00,WeatherDisplay:10.37,2013-04-18 03:00:00,
2013-04-17 23:05:00,65.0,64.1,29.40,NW,315,0.0,0.0,97,0.00,CLR,OVC,0.00,WeatherDisplay:10.37,2013-04-18 03:05:00,
2013-04-17 23:10:00,65.0,63.8,29.40,NW,315,0.0,0.0,96,0.00,CLR,OVC,0.00,WeatherDisplay:10.37,2013-04-18 03:10:00,
2013-04-17 23:15:00,65.0,63.8,29.40,NW,315,0.0,0.0,96,0.00,CLR,OVC,0.00,WeatherDisplay:10.37,2013-04-18 03:15:00,
2013-04-17 23:20:00,65.0,64.1,29.41,NW,315,0.0,0.0,97,0.00,CLR,OVC,0.00,WeatherDisplay:10.37,2013-04-18 03:20:00,
2013-04-17 23:25:00,66.0,65.1,29.41,SW,225,3.5,3.5,97,0.00,CLR,OVC,0.00,WeatherDisplay:10.37,2013-04-18 03:25:00,
2013-04-17 23:30:00,66.0,64.8,29.40,SSW,202,1.2,1.2,96,0.00,CLR,OVC,0.00,WeatherDisplay:10.37,2013-04-18 03:30:00,
2013-04-17 23:35:00,66.0,64.8,29.40,South,180,0.0,0.0,96,0.00,CLR,OVC,0.00,WeatherDisplay:10.37,2013-04-18 03:35:00,
2013-04-17 23:40:00,67.0,65.2,29.39,SSW,202,0.0,0.0,94,0.00,CLR,OVC,0.00,WeatherDisplay:10.37,2013-04-18 03:40:00,
2013-04-17 23:45:00,67.0,64.9,29.39,SSW,202,0.0,0.0,93,0.00,CLR,OVC,0.00,WeatherDisplay:10.37,2013-04-18 03:45:00,
2013-04-17 23:50:00,67.0,64.3,29.40,West,270,0.0,0.0,91,0.00,CLR,OVC,0.00,WeatherDisplay:10.37,2013-04-18 03:50:00,
2013-04-17 23:55:00,68.0,65.0,29.40,SSW,202,3.5,3.5,90,0.00,CLR,OVC,0.00,WeatherDisplay:10.37,2013-04-18 03:55:00,